KLIT/LIT METAR and TAF weather

Enter ICAO airport designator
Station Type Date Time Source
KLIT METAR 2019/04/25 11:53 UTC NOAA

KLIT 251153Z 25004KT 7SM SCT009 BKN020 BKN150 17/17 A2969 RMK AO2 SLP055 60077 70081 T01720167 10189 20167 55003


Station Type Date Time Source
KLIT Decoded METAR 2019/04/25 11:53 UTC NOAA

LITTLE ROCK ADAMS FIELD, AR, United States (KLIT) 34-44N 92-14W 79M
Apr 25, 2019 - 07:53 AM EDT / 2019.04.25 1153 UTC
Wind: from the WSW (250 degrees) at 5 MPH (4 KT):0
Visibility: 7 mile(s):0
Sky conditions: mostly cloudy
Temperature: 63.0 F (17.2 C)
Dew Point: 62.1 F (16.7 C)
Relative Humidity: 96%
Pressure (altimeter): 29.69 in. Hg (1005 hPa)
Pressure tendency: 0.01 inches (0.3 hPa) lower than three hours ago
ob: KLIT 251153Z 25004KT 7SM SCT009 BKN020 BKN150 17/17 A2969 RMK AO2 SLP055 60077 70081 T01720167 10189 20167 55003
cycle: 12

Station Type Date Time Source
KLIT TAF 2019/04/25 12:40 UTC NOAA

TAF KLIT 251138Z 2512/2612 VRB05KT P6SM BKN015 OVC030
TEMPO 2512/2514 BKN008
FM251700 25011G18KT P6SM -SHRA BKN050 OVC100
FM260100 30012KT P6SM OVC100

Example: see airport list